Terminal Aerodrome Forecast
Issued by NWS

Home | Current Version | Previous Version | Text Only | Print | Product List | Glossary On
Versions: 1 2 3 4 5 6 7 8 9 10 11 12 13 14 15 16 17 18 19 20 21
000
FTUS43 KLSX 131700
TAFSUS
TAF
KSUS 131720Z 1318/1418 03010KT P6SM FEW035
     FM132200 VRB03KT P6SM SKC
     FM141400 12005KT P6SM SCT080=

USA.gov is the U.S. government's official web portal to all federal, state and local government web resources and services.